EZY71RM EGGW-EDDB
Flight info
| Callsign | EZY71RM |
|---|---|
| Flight time | 1h 16m |
| Altitude | 37000 |
| Route | MATCH Q295 BRAIN M197 REDFA DCT TACHA DCT NIE DCT BATEL/N0433F350 T207 OGBER OGBER1R |
| Aircraft | A319/M-SDE3FGHIRWY/LB1 |
Departure
| Time | 2026-05-05 14:54 |
|---|---|
| Airport | London Luton Airport (EGGW) |
Arrival
| Time | 2026-05-05 16:10 |
|---|---|
| Airport | Berlin Brandenburg Airport (EDDB) |
| Time | Latitude | Longitude | Altitude | Speed | Heading |
|---|---|---|---|---|---|
| 2026-05-05 14:28 | 51.87840 | -0.37843 | 524 ft | 0 kts | 28° |
| 2026-05-05 14:45 | 51.87822 | -0.37861 | 523 ft | 4 kts | 46° |
| 2026-05-05 14:45 | 51.87809 | -0.37896 | 523 ft | 4 kts | 78° |
| 2026-05-05 14:45 | 51.87807 | -0.37913 | 523 ft | 1 kts | 83° |
| 2026-05-05 14:46 | 51.87807 | -0.37914 | 523 ft | 0 kts | 83° |
| 2026-05-05 14:46 | 51.87805 | -0.37933 | 524 ft | 2 kts | 82° |
| 2026-05-05 14:47 | 51.87805 | -0.37948 | 524 ft | 1 kts | 156° |
| 2026-05-05 14:47 | 51.87820 | -0.37958 | 524 ft | 3 kts | 148° |
| 2026-05-05 14:47 | 51.87832 | -0.37973 | 524 ft | 2 kts | 140° |
| 2026-05-05 14:47 | 51.87839 | -0.37982 | 524 ft | 1 kts | 145° |
| 2026-05-05 14:48 | 51.87843 | -0.37986 | 523 ft | 0 kts | 144° |
| 2026-05-05 14:49 | 51.87839 | -0.37981 | 523 ft | 2 kts | 144° |
| 2026-05-05 14:49 | 51.87816 | -0.37946 | 523 ft | 8 kts | 131° |
| 2026-05-05 14:49 | 51.87781 | -0.37850 | 523 ft | 10 kts | 115° |
| 2026-05-05 14:49 | 51.87750 | -0.37741 | 523 ft | 11 kts | 115° |
| 2026-05-05 14:50 | 51.87710 | -0.37602 | 519 ft | 16 kts | 115° |
| 2026-05-05 14:50 | 51.87662 | -0.37494 | 522 ft | 8 kts | 141° |
| 2026-05-05 14:50 | 51.87620 | -0.37462 | 523 ft | 6 kts | 167° |
| 2026-05-05 14:50 | 51.87567 | -0.37460 | 522 ft | 10 kts | 189° |
| 2026-05-05 14:51 | 51.87505 | -0.37534 | 522 ft | 12 kts | 248° |
| 2026-05-05 14:51 | 51.87483 | -0.37654 | 523 ft | 11 kts | 255° |
| 2026-05-05 14:51 | 51.87463 | -0.37772 | 523 ft | 12 kts | 253° |
| 2026-05-05 14:51 | 51.87439 | -0.37908 | 523 ft | 13 kts | 254° |
| 2026-05-05 14:52 | 51.87403 | -0.38031 | 524 ft | 12 kts | 221° |
| 2026-05-05 14:52 | 51.87320 | -0.38100 | 522 ft | 14 kts | 201° |
| 2026-05-05 14:52 | 51.87256 | -0.38092 | 524 ft | 6 kts | 129° |
| 2026-05-05 14:52 | 51.87257 | -0.38034 | 524 ft | 0 kts | 72° |
| 2026-05-05 14:53 | 51.87257 | -0.38033 | 524 ft | 0 kts | 73° |
| 2026-05-05 14:53 | 51.87322 | -0.37659 | 521 ft | 74 kts | 74° |
| 2026-05-05 14:53 | 51.87523 | -0.36496 | 526 ft | 138 kts | 74° |
| 2026-05-05 14:53 | 51.87797 | -0.34924 | 1021 ft | 145 kts | 73° |
| 2026-05-05 14:54 | 51.88066 | -0.33357 | 1804 ft | 145 kts | 72° |
| 2026-05-05 14:54 | 51.88354 | -0.31695 | 2292 ft | 164 kts | 72° |
| 2026-05-05 14:54 | 51.88685 | -0.29795 | 2682 ft | 186 kts | 72° |
| 2026-05-05 14:54 | 51.89057 | -0.27647 | 3038 ft | 211 kts | 73° |
| 2026-05-05 14:55 | 51.89472 | -0.25217 | 3471 ft | 237 kts | 75° |
| 2026-05-05 14:55 | 51.89412 | -0.22448 | 4089 ft | 260 kts | 110° |
| 2026-05-05 14:55 | 51.88274 | -0.20143 | 5026 ft | 271 kts | 144° |
| 2026-05-05 14:55 | 51.86612 | -0.18660 | 6076 ft | 275 kts | 154° |
| 2026-05-05 14:56 | 51.84871 | -0.17423 | 7033 ft | 279 kts | 157° |
| 2026-05-05 14:56 | 51.83058 | -0.16233 | 7989 ft | 283 kts | 158° |
| 2026-05-05 14:56 | 51.81222 | -0.15023 | 8971 ft | 288 kts | 158° |
| 2026-05-05 14:56 | 51.79361 | -0.13765 | 9900 ft | 292 kts | 157° |
| 2026-05-05 14:57 | 51.77496 | -0.12294 | 10454 ft | 310 kts | 144° |
| 2026-05-05 14:57 | 51.76003 | -0.09650 | 10765 ft | 331 kts | 117° |
| 2026-05-05 14:57 | 51.75422 | -0.06038 | 11402 ft | 339 kts | 90° |
| 2026-05-05 14:57 | 51.75798 | -0.02270 | 12192 ft | 342 kts | 75° |
| 2026-05-05 14:58 | 51.76254 | 0.01516 | 13022 ft | 346 kts | 81° |
| 2026-05-05 14:58 | 51.76608 | 0.05376 | 13787 ft | 350 kts | 78° |
| 2026-05-05 14:58 | 51.77122 | 0.09241 | 14491 ft | 353 kts | 76° |
| 2026-05-05 14:58 | 51.77712 | 0.13112 | 15195 ft | 357 kts | 75° |
| 2026-05-05 14:59 | 51.78341 | 0.17014 | 15893 ft | 361 kts | 75° |
| 2026-05-05 14:59 | 51.78981 | 0.20949 | 16586 ft | 365 kts | 75° |
| 2026-05-05 14:59 | 51.79620 | 0.24937 | 17267 ft | 368 kts | 76° |
| 2026-05-05 14:59 | 51.80250 | 0.28971 | 17964 ft | 372 kts | 76° |
| 2026-05-05 15:00 | 51.80874 | 0.33040 | 18598 ft | 376 kts | 76° |
| 2026-05-05 15:00 | 51.81286 | 0.35764 | 18985 ft | 378 kts | 76° |
| 2026-05-05 15:00 | 51.82121 | 0.41326 | 19764 ft | 383 kts | 76° |
| 2026-05-05 15:00 | 51.82753 | 0.45536 | 20359 ft | 387 kts | 77° |
| 2026-05-05 15:01 | 51.83393 | 0.49782 | 20949 ft | 391 kts | 77° |
| 2026-05-05 15:01 | 51.84039 | 0.54064 | 21535 ft | 394 kts | 77° |
| 2026-05-05 15:01 | 51.84689 | 0.58393 | 22121 ft | 398 kts | 77° |
| 2026-05-05 15:01 | 51.85342 | 0.62768 | 22723 ft | 402 kts | 77° |
| 2026-05-05 15:02 | 51.85988 | 0.67123 | 23271 ft | 405 kts | 77° |
| 2026-05-05 15:02 | 51.86657 | 0.71630 | 23778 ft | 409 kts | 77° |
| 2026-05-05 15:02 | 51.87323 | 0.76119 | 24235 ft | 412 kts | 78° |
| 2026-05-05 15:02 | 51.87982 | 0.80578 | 24677 ft | 414 kts | 78° |
| 2026-05-05 15:03 | 51.88652 | 0.85127 | 25140 ft | 417 kts | 78° |
| 2026-05-05 15:03 | 51.89328 | 0.89715 | 25585 ft | 420 kts | 78° |
| 2026-05-05 15:03 | 51.90006 | 0.94326 | 26033 ft | 423 kts | 78° |
| 2026-05-05 15:03 | 51.90684 | 0.98970 | 26467 ft | 425 kts | 78° |
| 2026-05-05 15:04 | 51.91364 | 1.03646 | 26905 ft | 428 kts | 78° |
| 2026-05-05 15:04 | 51.92043 | 1.08353 | 27347 ft | 431 kts | 78° |
| 2026-05-05 15:04 | 51.92725 | 1.13093 | 27786 ft | 433 kts | 78° |
| 2026-05-05 15:04 | 51.93412 | 1.17866 | 28197 ft | 436 kts | 78° |
| 2026-05-05 15:05 | 51.94798 | 1.27512 | 29017 ft | 443 kts | 78° |
| 2026-05-05 15:05 | 51.95496 | 1.32388 | 29405 ft | 446 kts | 78° |
| 2026-05-05 15:05 | 51.96196 | 1.37298 | 29795 ft | 449 kts | 78° |
| 2026-05-05 15:06 | 51.96899 | 1.42246 | 30149 ft | 452 kts | 78° |
| 2026-05-05 15:06 | 51.97605 | 1.47228 | 30459 ft | 454 kts | 78° |
| 2026-05-05 15:06 | 51.98312 | 1.52232 | 30771 ft | 457 kts | 78° |
| 2026-05-05 15:06 | 51.99019 | 1.57271 | 31082 ft | 459 kts | 79° |
| 2026-05-05 15:07 | 51.99725 | 1.62336 | 31383 ft | 462 kts | 79° |
| 2026-05-05 15:07 | 52.00433 | 1.67426 | 31723 ft | 463 kts | 79° |
| 2026-05-05 15:07 | 52.01142 | 1.72512 | 32176 ft | 461 kts | 79° |
| 2026-05-05 15:07 | 52.01847 | 1.77586 | 32617 ft | 460 kts | 79° |
| 2026-05-05 15:08 | 52.02549 | 1.82654 | 33041 ft | 460 kts | 79° |
| 2026-05-05 15:08 | 52.03246 | 1.87717 | 33466 ft | 459 kts | 79° |
| 2026-05-05 15:08 | 52.03941 | 1.92778 | 33889 ft | 459 kts | 79° |
| 2026-05-05 15:08 | 52.04633 | 1.97829 | 34259 ft | 458 kts | 79° |
| 2026-05-05 15:09 | 52.05324 | 2.02889 | 34612 ft | 458 kts | 79° |
| 2026-05-05 15:09 | 52.06010 | 2.07944 | 34953 ft | 458 kts | 79° |
| 2026-05-05 15:09 | 52.06696 | 2.12999 | 35277 ft | 458 kts | 79° |
| 2026-05-05 15:09 | 52.07371 | 2.17982 | 35589 ft | 458 kts | 79° |
| 2026-05-05 15:10 | 52.08052 | 2.23040 | 35886 ft | 458 kts | 79° |
| 2026-05-05 15:10 | 52.08728 | 2.28098 | 36200 ft | 458 kts | 79° |
| 2026-05-05 15:10 | 52.09401 | 2.33157 | 36480 ft | 458 kts | 79° |
| 2026-05-05 15:10 | 52.10072 | 2.38211 | 36751 ft | 458 kts | 79° |
| 2026-05-05 15:11 | 52.10742 | 2.43279 | 36925 ft | 459 kts | 79° |
| 2026-05-05 15:11 | 52.12330 | 2.53305 | 36958 ft | 458 kts | 74° |
| 2026-05-05 15:12 | 52.14225 | 2.63203 | 36957 ft | 458 kts | 74° |
| 2026-05-05 15:12 | 52.16109 | 2.73106 | 36957 ft | 458 kts | 74° |
| 2026-05-05 15:13 | 52.17979 | 2.83030 | 36958 ft | 459 kts | 74° |
| 2026-05-05 15:13 | 52.19842 | 2.92974 | 36960 ft | 459 kts | 75° |
| 2026-05-05 15:14 | 52.21385 | 3.01256 | 36950 ft | 459 kts | 75° |
| 2026-05-05 15:14 | 52.23233 | 3.11227 | 36958 ft | 460 kts | 75° |
| 2026-05-05 15:15 | 52.25076 | 3.21206 | 36955 ft | 460 kts | 75° |
| 2026-05-05 15:15 | 52.26250 | 3.31415 | 36956 ft | 457 kts | 84° |
| 2026-05-05 15:16 | 52.27131 | 3.41704 | 36950 ft | 458 kts | 84° |
| 2026-05-05 15:16 | 52.28010 | 3.51997 | 36947 ft | 458 kts | 84° |
| 2026-05-05 15:17 | 52.28872 | 3.62297 | 36939 ft | 458 kts | 84° |
| 2026-05-05 15:17 | 52.29724 | 3.72599 | 36942 ft | 458 kts | 84° |
| 2026-05-05 15:18 | 52.30566 | 3.82915 | 36937 ft | 458 kts | 84° |
| 2026-05-05 15:18 | 52.31411 | 3.93239 | 36943 ft | 458 kts | 84° |
| 2026-05-05 15:19 | 52.32247 | 4.03558 | 36942 ft | 458 kts | 85° |
| 2026-05-05 15:19 | 52.33063 | 4.13888 | 36932 ft | 458 kts | 85° |
| 2026-05-05 15:20 | 52.33866 | 4.24212 | 36923 ft | 458 kts | 85° |
| 2026-05-05 15:20 | 52.34664 | 4.34425 | 36924 ft | 458 kts | 85° |
| 2026-05-05 15:21 | 52.35461 | 4.44782 | 36918 ft | 459 kts | 85° |
| 2026-05-05 15:21 | 52.36249 | 4.55137 | 36915 ft | 459 kts | 85° |
| 2026-05-05 15:22 | 52.37017 | 4.65441 | 36912 ft | 459 kts | 85° |
| 2026-05-05 15:22 | 52.37784 | 4.75835 | 36903 ft | 460 kts | 85° |
| 2026-05-05 15:23 | 52.38545 | 4.86221 | 36910 ft | 460 kts | 85° |
| 2026-05-05 15:23 | 52.39300 | 4.96629 | 36910 ft | 460 kts | 85° |
| 2026-05-05 15:24 | 52.40043 | 5.07038 | 36900 ft | 460 kts | 86° |
| 2026-05-05 15:24 | 52.40775 | 5.17459 | 36902 ft | 461 kts | 86° |
| 2026-05-05 15:25 | 52.41496 | 5.27886 | 36905 ft | 461 kts | 86° |
| 2026-05-05 15:25 | 52.42214 | 5.38329 | 36903 ft | 461 kts | 86° |
| 2026-05-05 15:26 | 52.42923 | 5.48775 | 36903 ft | 462 kts | 86° |
| 2026-05-05 15:26 | 52.43625 | 5.59236 | 36907 ft | 462 kts | 86° |
| 2026-05-05 15:27 | 52.44317 | 5.69710 | 36906 ft | 462 kts | 86° |
| 2026-05-05 15:27 | 52.44999 | 5.80186 | 36903 ft | 462 kts | 86° |
| 2026-05-05 15:28 | 52.45674 | 5.90671 | 36901 ft | 463 kts | 86° |
| 2026-05-05 15:28 | 52.46333 | 6.01092 | 36897 ft | 463 kts | 86° |
| 2026-05-05 15:29 | 52.46987 | 6.11603 | 36894 ft | 463 kts | 86° |
| 2026-05-05 15:29 | 52.47626 | 6.22120 | 36896 ft | 464 kts | 86° |
| 2026-05-05 15:30 | 52.48257 | 6.32647 | 36899 ft | 464 kts | 86° |
| 2026-05-05 15:30 | 52.48889 | 6.43196 | 36901 ft | 465 kts | 87° |
| 2026-05-05 15:31 | 52.49510 | 6.53751 | 36903 ft | 465 kts | 87° |
| 2026-05-05 15:31 | 52.50118 | 6.64333 | 36906 ft | 466 kts | 87° |
| 2026-05-05 15:32 | 52.50721 | 6.74918 | 36905 ft | 466 kts | 87° |
| 2026-05-05 15:32 | 52.51319 | 6.85513 | 36901 ft | 466 kts | 87° |
| 2026-05-05 15:33 | 52.51905 | 6.96122 | 36894 ft | 467 kts | 87° |
| 2026-05-05 15:33 | 52.52481 | 7.06741 | 36893 ft | 467 kts | 87° |
| 2026-05-05 15:34 | 52.53046 | 7.17372 | 36890 ft | 467 kts | 87° |
| 2026-05-05 15:34 | 52.53599 | 7.28008 | 36888 ft | 468 kts | 87° |
| 2026-05-05 15:35 | 52.54153 | 7.38653 | 36886 ft | 468 kts | 87° |
| 2026-05-05 15:35 | 52.54693 | 7.49316 | 36883 ft | 468 kts | 88° |
| 2026-05-05 15:36 | 52.55216 | 7.59992 | 36884 ft | 469 kts | 88° |
| 2026-05-05 15:36 | 52.55734 | 7.70682 | 36882 ft | 469 kts | 88° |
| 2026-05-05 15:37 | 52.56246 | 7.81379 | 36881 ft | 470 kts | 88° |
| 2026-05-05 15:37 | 52.56750 | 7.92099 | 36882 ft | 471 kts | 88° |
| 2026-05-05 15:38 | 52.57240 | 8.02756 | 36882 ft | 471 kts | 88° |
| 2026-05-05 15:38 | 52.57724 | 8.13505 | 36881 ft | 471 kts | 88° |
| 2026-05-05 15:39 | 52.58200 | 8.24250 | 36882 ft | 472 kts | 88° |
| 2026-05-05 15:39 | 52.58670 | 8.35014 | 36887 ft | 472 kts | 88° |
| 2026-05-05 15:40 | 52.59124 | 8.45795 | 36886 ft | 473 kts | 88° |
| 2026-05-05 15:40 | 52.59563 | 8.56580 | 36885 ft | 473 kts | 88° |
| 2026-05-05 15:41 | 52.60000 | 8.67390 | 36889 ft | 474 kts | 89° |
| 2026-05-05 15:41 | 52.60428 | 8.78206 | 36887 ft | 474 kts | 89° |
| 2026-05-05 15:42 | 52.60846 | 8.89043 | 36887 ft | 475 kts | 89° |
| 2026-05-05 15:42 | 52.61252 | 8.99890 | 36892 ft | 475 kts | 89° |
| 2026-05-05 15:43 | 52.61650 | 9.10757 | 36890 ft | 476 kts | 89° |
| 2026-05-05 15:43 | 52.62041 | 9.21555 | 36895 ft | 476 kts | 89° |
| 2026-05-05 15:44 | 52.62420 | 9.32498 | 36893 ft | 476 kts | 89° |
| 2026-05-05 15:44 | 52.62354 | 9.43284 | 36888 ft | 473 kts | 97° |
| 2026-05-05 15:45 | 52.61929 | 9.54101 | 36888 ft | 474 kts | 97° |
| 2026-05-05 15:45 | 52.61493 | 9.64909 | 36885 ft | 474 kts | 97° |
| 2026-05-05 15:46 | 52.61048 | 9.75728 | 36883 ft | 474 kts | 97° |
| 2026-05-05 15:46 | 52.60593 | 9.86545 | 36887 ft | 474 kts | 97° |
| 2026-05-05 15:47 | 52.60129 | 9.97380 | 36887 ft | 475 kts | 97° |
| 2026-05-05 15:47 | 52.59659 | 10.08216 | 36887 ft | 475 kts | 97° |
| 2026-05-05 15:48 | 52.59173 | 10.19058 | 36883 ft | 475 kts | 97° |
| 2026-05-05 15:48 | 52.58667 | 10.29895 | 36882 ft | 475 kts | 97° |
| 2026-05-05 15:49 | 52.58161 | 10.40726 | 36878 ft | 475 kts | 97° |
| 2026-05-05 15:49 | 52.57655 | 10.51574 | 36635 ft | 477 kts | 98° |
| 2026-05-05 15:49 | 52.57395 | 10.57015 | 35913 ft | 480 kts | 98° |
| 2026-05-05 15:50 | 52.57124 | 10.62519 | 34970 ft | 486 kts | 98° |
| 2026-05-05 15:50 | 52.56843 | 10.68087 | 34052 ft | 491 kts | 99° |
| 2026-05-05 15:50 | 52.56556 | 10.73703 | 33069 ft | 495 kts | 98° |
| 2026-05-05 15:50 | 52.56272 | 10.79309 | 32546 ft | 488 kts | 98° |
| 2026-05-05 15:51 | 52.55994 | 10.84850 | 31883 ft | 485 kts | 98° |
| 2026-05-05 15:51 | 52.55722 | 10.90341 | 31312 ft | 479 kts | 98° |
| 2026-05-05 15:51 | 52.55449 | 10.95779 | 30617 ft | 477 kts | 98° |
| 2026-05-05 15:51 | 52.55171 | 11.01180 | 30013 ft | 473 kts | 98° |
| 2026-05-05 15:52 | 52.54890 | 11.06538 | 29372 ft | 468 kts | 98° |
| 2026-05-05 15:52 | 52.54749 | 11.11848 | 28823 ft | 464 kts | 91° |
| 2026-05-05 15:52 | 52.54870 | 11.17104 | 28266 ft | 458 kts | 90° |
| 2026-05-05 15:52 | 52.54991 | 11.22310 | 27713 ft | 453 kts | 90° |
| 2026-05-05 15:53 | 52.55107 | 11.27435 | 27180 ft | 447 kts | 90° |
| 2026-05-05 15:53 | 52.55222 | 11.32511 | 26656 ft | 442 kts | 90° |
| 2026-05-05 15:53 | 52.55335 | 11.37525 | 26149 ft | 436 kts | 90° |
| 2026-05-05 15:53 | 52.55444 | 11.42479 | 25652 ft | 432 kts | 90° |
| 2026-05-05 15:54 | 52.55547 | 11.47389 | 25179 ft | 428 kts | 90° |
| 2026-05-05 15:54 | 52.55647 | 11.52260 | 24703 ft | 424 kts | 90° |
| 2026-05-05 15:54 | 52.55744 | 11.57006 | 24245 ft | 420 kts | 90° |
| 2026-05-05 15:54 | 52.55841 | 11.61787 | 23779 ft | 416 kts | 90° |
| 2026-05-05 15:55 | 52.55935 | 11.66526 | 23276 ft | 414 kts | 90° |
| 2026-05-05 15:55 | 52.56023 | 11.71238 | 22782 ft | 411 kts | 90° |
| 2026-05-05 15:55 | 52.56105 | 11.75907 | 22308 ft | 407 kts | 90° |
| 2026-05-05 15:55 | 52.56185 | 11.80542 | 21838 ft | 404 kts | 90° |
| 2026-05-05 15:56 | 52.56267 | 11.85128 | 21359 ft | 401 kts | 90° |
| 2026-05-05 15:56 | 52.56353 | 11.89698 | 20883 ft | 398 kts | 90° |
| 2026-05-05 15:56 | 52.56437 | 11.94234 | 20396 ft | 395 kts | 90° |
| 2026-05-05 15:56 | 52.56516 | 11.98734 | 19911 ft | 393 kts | 90° |
| 2026-05-05 15:57 | 52.56365 | 12.03150 | 19688 ft | 381 kts | 103° |
| 2026-05-05 15:57 | 52.55581 | 12.07248 | 19513 ft | 374 kts | 116° |
| 2026-05-05 15:57 | 52.54540 | 12.11146 | 19347 ft | 372 kts | 116° |
| 2026-05-05 15:57 | 52.53512 | 12.15050 | 19177 ft | 371 kts | 116° |
| 2026-05-05 15:58 | 52.52495 | 12.18938 | 18646 ft | 373 kts | 115° |
| 2026-05-05 15:58 | 52.51458 | 12.22895 | 17509 ft | 380 kts | 115° |
| 2026-05-05 15:58 | 52.50412 | 12.26886 | 16540 ft | 379 kts | 115° |
| 2026-05-05 15:58 | 52.49374 | 12.30844 | 15703 ft | 375 kts | 115° |
| 2026-05-05 15:59 | 52.48344 | 12.34752 | 14929 ft | 371 kts | 116° |
| 2026-05-05 15:59 | 52.47324 | 12.38606 | 14161 ft | 366 kts | 116° |
| 2026-05-05 15:59 | 52.46313 | 12.42410 | 13375 ft | 362 kts | 116° |
| 2026-05-05 15:59 | 52.45312 | 12.46161 | 12536 ft | 357 kts | 115° |
| 2026-05-05 16:00 | 52.44322 | 12.49860 | 11835 ft | 349 kts | 115° |
| 2026-05-05 16:00 | 52.43367 | 12.53431 | 11392 ft | 338 kts | 115° |
| 2026-05-05 16:00 | 52.42428 | 12.56937 | 10939 ft | 335 kts | 115° |
| 2026-05-05 16:00 | 52.41493 | 12.60420 | 10483 ft | 333 kts | 115° |
| 2026-05-05 16:01 | 52.40563 | 12.63874 | 10081 ft | 329 kts | 115° |
| 2026-05-05 16:01 | 52.39670 | 12.67192 | 9955 ft | 316 kts | 115° |
| 2026-05-05 16:01 | 52.38787 | 12.70470 | 9831 ft | 305 kts | 115° |
| 2026-05-05 16:01 | 52.37951 | 12.73572 | 9455 ft | 302 kts | 115° |
| 2026-05-05 16:02 | 52.37103 | 12.76707 | 8956 ft | 298 kts | 115° |
| 2026-05-05 16:02 | 52.36267 | 12.79787 | 8350 ft | 295 kts | 115° |
| 2026-05-05 16:02 | 52.35440 | 12.82831 | 7712 ft | 292 kts | 115° |
| 2026-05-05 16:02 | 52.34620 | 12.85849 | 7122 ft | 288 kts | 115° |
| 2026-05-05 16:03 | 52.33811 | 12.88807 | 6638 ft | 282 kts | 115° |
| 2026-05-05 16:03 | 52.33272 | 12.90766 | 6377 ft | 276 kts | 115° |
| 2026-05-05 16:03 | 52.32490 | 12.93593 | 5982 ft | 272 kts | 115° |
| 2026-05-05 16:03 | 52.31706 | 12.96397 | 5585 ft | 270 kts | 115° |
| 2026-05-05 16:04 | 52.30923 | 12.99179 | 5205 ft | 268 kts | 115° |
| 2026-05-05 16:04 | 52.30140 | 13.01935 | 4834 ft | 267 kts | 115° |
| 2026-05-05 16:04 | 52.29356 | 13.04670 | 4447 ft | 264 kts | 115° |
| 2026-05-05 16:04 | 52.28573 | 13.07365 | 4058 ft | 262 kts | 115° |
| 2026-05-05 16:05 | 52.27799 | 13.09991 | 3685 ft | 259 kts | 115° |
| 2026-05-05 16:05 | 52.27183 | 13.12717 | 3311 ft | 255 kts | 99° |
| 2026-05-05 16:05 | 52.27164 | 13.15561 | 3016 ft | 247 kts | 78° |
| 2026-05-05 16:05 | 52.27658 | 13.18133 | 2996 ft | 229 kts | 67° |
| 2026-05-05 16:06 | 52.28220 | 13.20461 | 2999 ft | 212 kts | 67° |
| 2026-05-05 16:06 | 52.28752 | 13.22671 | 2995 ft | 208 kts | 67° |
| 2026-05-05 16:06 | 52.29271 | 13.24827 | 2947 ft | 200 kts | 67° |
| 2026-05-05 16:06 | 52.29774 | 13.26917 | 2782 ft | 195 kts | 67° |
| 2026-05-05 16:07 | 52.30265 | 13.28959 | 2501 ft | 191 kts | 67° |
| 2026-05-05 16:07 | 52.30744 | 13.30956 | 2254 ft | 186 kts | 67° |
| 2026-05-05 16:07 | 52.31204 | 13.32876 | 2009 ft | 176 kts | 66° |
| 2026-05-05 16:07 | 52.31635 | 13.34674 | 1773 ft | 164 kts | 67° |
| 2026-05-05 16:08 | 52.32036 | 13.36350 | 1567 ft | 154 kts | 66° |
| 2026-05-05 16:08 | 52.32417 | 13.37941 | 1369 ft | 147 kts | 66° |
| 2026-05-05 16:08 | 52.32779 | 13.39458 | 1172 ft | 140 kts | 66° |
| 2026-05-05 16:08 | 52.33129 | 13.40910 | 972 ft | 134 kts | 66° |
| 2026-05-05 16:09 | 52.33471 | 13.42303 | 768 ft | 132 kts | 67° |
| 2026-05-05 16:09 | 52.33804 | 13.43680 | 589 ft | 131 kts | 70° |
| 2026-05-05 16:09 | 52.34136 | 13.45121 | 433 ft | 136 kts | 67° |
| 2026-05-05 16:09 | 52.34478 | 13.46556 | 239 ft | 134 kts | 69° |
| 2026-05-05 16:10 | 52.34805 | 13.47933 | 160 ft | 121 kts | 69° |
| 2026-05-05 16:10 | 52.35047 | 13.48962 | 157 ft | 72 kts | 68° |
| 2026-05-05 16:10 | 52.35185 | 13.49544 | 159 ft | 48 kts | 69° |
| 2026-05-05 16:10 | 52.35302 | 13.50037 | 156 ft | 44 kts | 69° |
| 2026-05-05 16:11 | 52.35407 | 13.50423 | 157 ft | 24 kts | 53° |
| 2026-05-05 16:11 | 52.35746 | 13.50839 | 151 ft | 17 kts | 349° |
| 2026-05-05 16:12 | 52.35847 | 13.50777 | 152 ft | 14 kts | 339° |
| 2026-05-05 16:12 | 52.36034 | 13.50659 | 153 ft | 15 kts | 339° |
| 2026-05-05 16:13 | 52.36167 | 13.50695 | 154 ft | 4 kts | 69° |
| 2026-05-05 16:13 | 52.36173 | 13.50721 | 155 ft | 0 kts | 69° |